Time;durP1;ratioP1;P1;durP2;ratioP2;P2;SDS_P1;SDS_P2;PMS_P1;PMS_P2;Temp;Humidity;BMP_temperature;BMP_pressure;BME280_temperature;BME280_humidity;BME280_pressure;Samples;Min_cycle;Max_cycle;Signal;HPM_P1;HPM_P2
2023/11/14 00:02:09;;;;;;;24.60;4.05;;;;;;;10.96;93.15;99118.81;5011277;28;20310;-79
2023/11/14 00:04:37;;;;;;;17.88;3.58;;;;;;;10.98;92.74;99120.47;5030025;28;20412;-79
2023/11/14 00:07:05;;;;;;;16.23;3.53;;;;;;;10.96;92.99;99119.66;5024889;28;20037;-79
2023/11/14 00:09:33;;;;;;;15.55;3.90;;;;;;;10.93;93.58;99120.63;5029046;28;20753;-82
2023/11/14 00:12:00;;;;;;;17.90;3.65;;;;;;;10.95;93.22;99128.47;5030149;28;20092;-78
2023/11/14 00:14:29;;;;;;;17.13;3.85;;;;;;;10.95;93.07;99131.06;5017557;28;20088;-78
2023/11/14 00:16:56;;;;;;;27.13;4.18;;;;;;;10.95;93.33;99131.06;5035534;28;20045;-79
2023/11/14 00:19:23;;;;;;;9.77;3.25;;;;;;;10.95;93.45;99125.84;5043019;28;20049;-77
2023/11/14 00:21:50;;;;;;;19.33;4.25;;;;;;;10.95;93.31;99128.47;5039448;28;20055;-79
2023/11/14 00:24:17;;;;;;;18.30;3.88;;;;;;;10.96;93.56;99117.06;5048225;28;20037;-79
2023/11/14 00:26:47;;;;;;;9.00;2.85;;;;;;;11.03;92.49;99133.41;5036357;28;20102;-79
2023/11/14 00:29:16;;;;;;;14.93;3.75;;;;;;;11.05;92.68;99115.88;5042711;28;20033;-78
2023/11/14 00:31:43;;;;;;;22.60;4.05;;;;;;;11.03;93.02;99130.78;5043692;28;20125;-83
2023/11/14 00:34:09;;;;;;;13.52;4.07;;;;;;;11.05;93.23;99136.81;5052988;28;20120;-82
2023/11/14 00:36:39;;;;;;;16.17;4.13;;;;;;;11.03;93.12;99123.81;5051767;28;20076;-84
2023/11/14 00:39:09;;;;;;;13.88;4.18;;;;;;;10.99;93.84;99122.19;5051040;28;20101;-84
2023/11/14 00:41:38;;;;;;;23.63;3.88;;;;;;;10.92;94.33;99107.59;5047552;28;20109;-84
2023/11/14 00:44:05;;;;;;;16.77;3.45;;;;;;;10.97;94.08;99104.84;5026525;28;20304;-82
2023/11/14 00:46:32;;;;;;;22.60;4.53;;;;;;;11.11;93.06;99106.94;5051921;28;20049;-77
2023/11/14 00:48:59;;;;;;;17.80;2.90;;;;;;;11.17;92.55;99112.84;5027702;28;20440;-80
2023/11/14 00:51:26;;;;;;;13.20;3.95;;;;;;;11.14;93.27;99120.78;5032220;28;20022;-79
2023/11/14 00:53:52;;;;;;;20.10;4.10;;;;;;;11.06;93.63;99097.50;5026370;28;20069;-77
2023/11/14 00:56:19;;;;;;;22.25;4.00;;;;;;;11.17;92.91;99098.88;5024923;28;20045;-82
2023/11/14 00:58:45;;;;;;;19.73;4.45;;;;;;;11.14;93.34;99106.84;5026772;28;20077;-81
2023/11/14 01:01:12;;;;;;;19.02;4.82;;;;;;;11.18;93.28;99105.81;5038837;28;20044;-77
2023/11/14 01:03:38;;;;;;;14.15;3.70;;;;;;;11.22;92.77;99089.06;5020357;28;20054;-78
2023/11/14 01:06:05;;;;;;;13.82;3.60;;;;;;;11.19;92.96;99083.97;5024623;28;20046;-78
2023/11/14 01:08:32;;;;;;;17.63;4.25;;;;;;;11.15;93.59;99088.44;5020504;28;20097;-80
2023/11/14 01:10:59;;;;;;;25.13;4.25;;;;;;;11.21;93.22;99087.38;5021389;28;22191;-82
2023/11/14 01:13:25;;;;;;;18.08;3.33;;;;;;;11.25;92.96;99102.06;5024232;28;20449;-78
2023/11/14 01:15:52;;;;;;;17.63;4.10;;;;;;;11.24;92.65;99077.63;5039197;28;20052;-80
2023/11/14 01:18:19;;;;;;;21.92;4.63;;;;;;;11.23;92.63;99075.91;5017658;28;20049;-77
2023/11/14 01:20:45;;;;;;;18.20;3.92;;;;;;;11.21;93.15;99090.84;5020646;28;20126;-78
2023/11/14 01:23:12;;;;;;;14.25;4.03;;;;;;;11.18;93.30;99083.09;5025060;28;20305;-80
2023/11/14 01:25:40;;;;;;;25.20;3.97;;;;;;;11.22;93.10;99081.22;5028347;28;20045;-83
2023/11/14 01:28:06;;;;;;;19.63;4.45;;;;;;;11.19;93.35;99091.81;5038731;28;20041;-80
2023/11/14 01:30:33;;;;;;;16.00;4.57;;;;;;;11.21;93.05;99079.50;5023544;28;20041;-80
2023/11/14 01:32:59;;;;;;;14.10;4.03;;;;;;;11.27;92.79;99092.38;5021380;28;20042;-79
2023/11/14 01:35:26;;;;;;;25.05;4.00;;;;;;;11.28;92.13;99080.13;5022739;28;20116;-79
2023/11/14 01:37:52;;;;;;;12.18;3.33;;;;;;;11.38;91.31;99074.50;5018188;28;20124;-80
2023/11/14 01:40:19;;;;;;;18.98;5.07;;;;;;;11.44;91.08;99067.34;5026006;28;20049;-77
2023/11/14 01:42:45;;;;;;;17.42;3.88;;;;;;;11.41;90.89;99063.91;5017645;28;20045;-78
2023/11/14 01:45:12;;;;;;;14.02;3.58;;;;;;;11.37;91.83;99082.44;5008152;28;20087;-78
2023/11/14 01:47:39;;;;;;;17.30;4.18;;;;;;;11.31;92.61;99072.19;5022920;28;20064;-81
2023/11/14 01:50:07;;;;;;;20.17;3.83;;;;;;;11.35;92.31;99079.84;5021316;28;20057;-80
2023/11/14 01:52:34;;;;;;;19.52;4.43;;;;;;;11.30;93.47;99076.53;5021594;28;20052;-77
2023/11/14 01:55:01;;;;;;;17.52;4.93;;;;;;;11.31;93.49;99082.66;5025463;28;20037;-78
2023/11/14 01:57:27;;;;;;;25.05;4.68;;;;;;;11.31;93.72;99044.19;5004766;28;20080;-81
2023/11/14 01:59:55;;;;;;;30.65;5.18;;;;;;;11.24;94.40;99088.13;5033632;28;20084;-78
2023/11/14 02:02:21;;;;;;;19.83;4.70;;;;;;;11.20;95.63;99097.00;5025379;28;20049;-77
2023/11/14 02:04:49;;;;;;;20.10;4.55;;;;;;;11.21;95.64;99108.31;5006309;28;20041;-76
2023/11/14 02:07:17;;;;;;;16.05;3.22;;;;;;;11.23;95.77;99102.13;5007864;28;20458;-78
2023/11/14 02:09:43;;;;;;;17.25;3.78;;;;;;;11.31;94.10;99109.69;5008374;28;20525;-81
2023/11/14 02:12:10;;;;;;;16.33;3.63;;;;;;;11.39;93.42;99104.16;5021332;28;20064;-78
2023/11/14 02:14:37;;;;;;;13.35;3.60;;;;;;;11.44;92.46;99110.09;5018292;28;20045;-78
2023/11/14 02:17:04;;;;;;;13.35;3.60;;;;;;;11.51;91.72;99101.09;5004679;28;20052;-77
2023/11/14 02:19:31;;;;;;;17.35;3.55;;;;;;;11.56;91.15;99099.16;5016690;28;20053;-77
2023/11/14 02:21:58;;;;;;;18.25;3.75;;;;;;;11.55;90.94;99100.06;5000448;28;20141;-76
2023/11/14 02:24:27;;;;;;;18.38;3.90;;;;;;;11.50;91.06;99107.25;5022222;28;20037;-76
2023/11/14 02:26:54;;;;;;;14.85;4.15;;;;;;;11.53;90.73;99096.66;5026129;28;20056;-79
2023/11/14 02:29:22;;;;;;;14.25;4.38;;;;;;;11.48;90.92;99116.09;5036096;28;20816;-84
2023/11/14 02:31:50;;;;;;;22.60;4.60;;;;;;;11.42;90.60;99090.97;5018863;28;20044;-85
2023/11/14 02:34:16;;;;;;;11.68;4.07;;;;;;;11.38;91.23;99112.94;5038148;28;20061;-79
2023/11/14 02:36:43;;;;;;;15.88;3.40;;;;;;;11.36;91.91;99112.16;5038364;28;20049;-76
2023/11/14 02:39:10;;;;;;;21.65;4.47;;;;;;;11.27;92.42;99110.72;5018848;28;20250;-77
2023/11/14 02:41:37;;;;;;;15.48;4.10;;;;;;;11.26;92.69;99116.88;5023493;28;20052;-77
2023/11/14 02:44:04;;;;;;;16.83;3.83;;;;;;;11.29;92.63;99123.75;5022673;28;20063;-78
2023/11/14 02:46:32;;;;;;;14.88;4.72;;;;;;;11.25;92.87;99116.03;5025283;28;20052;-77
2023/11/14 02:49:35;;;;;;;10.52;3.63;;;;;;;11.24;93.55;99108.22;5027188;28;21421;-78
2023/11/14 02:52:03;;;;;;;18.73;3.75;;;;;;;11.18;95.22;99104.03;5019000;28;20117;-79
2023/11/14 02:54:29;;;;;;;18.45;4.72;;;;;;;11.13;97.26;99097.28;5020350;28;20068;-76
2023/11/14 02:56:59;;;;;;;14.65;3.50;;;;;;;11.00;99.19;99099.47;5016797;28;20045;-77
2023/11/14 02:59:25;;;;;;;18.90;4.70;;;;;;;10.89;100.00;99098.09;5019772;28;20672;-80
2023/11/14 03:01:52;;;;;;;14.25;5.20;;;;;;;10.91;100.00;99108.50;5019145;28;20054;-75
2023/11/14 03:04:19;;;;;;;17.80;5.35;;;;;;;10.88;100.00;99106.84;5027219;28;20049;-78
2023/11/14 03:06:46;;;;;;;20.23;4.20;;;;;;;10.90;100.00;99122.53;5008761;28;20045;-78
2023/11/14 03:09:13;;;;;;;17.85;4.43;;;;;;;10.85;100.00;99112.19;5019922;28;20116;-76
2023/11/14 03:11:40;;;;;;;17.55;4.53;;;;;;;10.96;100.00;99118.81;5021742;28;20065;-83
2023/11/14 03:14:08;;;;;;;18.50;4.38;;;;;;;10.95;100.00;99112.75;5017159;28;20064;-80
2023/11/14 03:16:37;;;;;;;22.77;5.90;;;;;;;11.01;99.56;99122.97;5015488;28;20125;-82
2023/11/14 03:19:03;;;;;;;13.60;3.95;;;;;;;11.04;98.55;99120.28;5019236;28;20045;-75
2023/11/14 03:21:30;;;;;;;17.38;3.65;;;;;;;11.06;98.29;99128.91;5021651;28;20073;-77
2023/11/14 03:23:57;;;;;;;18.38;5.63;;;;;;;11.03;98.20;99129.03;5025001;28;20125;-77
2023/11/14 03:26:33;;;;;;;16.45;4.50;;;;;;;11.02;98.11;99143.03;5024239;28;20084;-79
2023/11/14 03:29:00;;;;;;;15.43;3.75;;;;;;;11.02;97.96;99147.44;5016345;28;20064;-80
2023/11/14 03:31:26;;;;;;;13.38;3.30;;;;;;;11.05;97.75;99137.66;5022977;28;20132;-76
2023/11/14 03:33:53;;;;;;;24.30;5.05;;;;;;;11.12;97.12;99145.31;4994716;28;20298;-76
2023/11/14 03:36:19;;;;;;;23.48;5.05;;;;;;;11.11;97.75;99136.63;5017680;28;20065;-83
2023/11/14 03:38:46;;;;;;;26.77;5.53;;;;;;;11.18;97.78;99134.63;5000504;28;20140;-83
2023/11/14 03:41:13;;;;;;;25.30;5.32;;;;;;;11.12;98.39;99145.31;5041696;28;20041;-79
2023/11/14 03:43:40;;;;;;;23.33;5.55;;;;;;;11.13;98.64;99134.78;5024669;28;20045;-77
2023/11/14 03:46:07;;;;;;;17.63;4.10;;;;;;;11.08;98.46;99134.09;5023208;28;20049;-79
2023/11/14 03:48:33;;;;;;;20.15;4.97;;;;;;;11.08;98.53;99134.09;5009762;28;20047;-78
2023/11/14 03:51:00;;;;;;;18.45;6.00;;;;;;;11.05;98.54;99145.53;5034232;28;20056;-77
2023/11/14 03:53:26;;;;;;;14.55;4.30;;;;;;;11.01;98.84;99143.94;5020751;28;20609;-79
2023/11/14 03:55:53;;;;;;;20.23;5.43;;;;;;;11.05;98.92;99142.06;5018016;28;20704;-78
2023/11/14 03:58:20;;;;;;;21.42;4.95;;;;;;;11.08;98.13;99148.06;5005841;28;20696;-80
2023/11/14 04:00:49;;;;;;;17.05;3.65;;;;;;;11.09;98.07;99148.91;5017760;28;20061;-78
2023/11/14 04:03:16;;;;;;;16.98;4.20;;;;;;;11.02;97.79;99118.63;5022911;28;20056;-80
2023/11/14 04:05:43;;;;;;;12.73;3.78;;;;;;;11.07;97.54;99143.72;5019038;28;20489;-83
2023/11/14 04:08:10;;;;;;;13.93;3.38;;;;;;;11.11;97.51;99175.91;5020596;28;20470;-79
2023/11/14 04:10:36;;;;;;;10.85;3.67;;;;;;;11.13;98.36;99165.38;5021595;28;20480;-78
2023/11/14 04:13:03;;;;;;;18.20;3.13;;;;;;;11.08;99.77;99169.00;5021997;28;20049;-78
2023/11/14 04:15:30;;;;;;;17.35;4.20;;;;;;;10.96;100.00;99176.44;5024302;28;20033;-81
2023/11/14 04:17:58;;;;;;;20.20;4.00;;;;;;;10.92;100.00;99173.94;5015900;28;20064;-76
2023/11/14 04:20:24;;;;;;;23.83;4.25;;;;;;;10.88;100.00;99167.06;5017977;28;20121;-80
2023/11/14 04:22:51;;;;;;;13.38;3.35;;;;;;;10.87;100.00;99165.38;5018627;28;20775;-76
2023/11/14 04:25:17;;;;;;;16.10;3.10;;;;;;;10.89;100.00;99174.00;5021342;28;20676;-77
2023/11/14 04:27:44;;;;;;;19.42;4.32;;;;;;;10.85;100.00;99177.66;5019867;28;20077;-78
2023/11/14 04:30:11;;;;;;;14.93;4.07;;;;;;;10.86;100.00;99168.88;5024898;28;20041;-79
2023/11/14 04:32:37;;;;;;;16.38;3.80;;;;;;;10.68;100.00;99177.38;5024974;28;20049;-77
2023/11/14 04:35:05;;;;;;;14.15;4.40;;;;;;;10.62;100.00;99157.47;5025160;28;20065;-79
2023/11/14 04:37:34;;;;;;;22.00;3.95;;;;;;;10.59;100.00;99173.28;5011012;28;20443;-78
2023/11/14 04:40:01;;;;;;;18.00;4.07;;;;;;;10.59;100.00;99175.91;5027622;28;20084;-80
2023/11/14 04:42:27;;;;;;;19.92;4.18;;;;;;;10.55;100.00;99161.22;5032244;28;20492;-81
2023/11/14 04:44:54;;;;;;;21.20;4.63;;;;;;;10.59;100.00;99168.91;5022376;28;20076;-77
2023/11/14 04:47:21;;;;;;;18.40;4.07;;;;;;;10.64;100.00;99171.38;5025357;28;20042;-82
2023/11/14 04:49:47;;;;;;;22.60;4.28;;;;;;;10.74;100.00;99164.06;5018160;28;20050;-77
2023/11/14 04:52:14;;;;;;;23.63;3.83;;;;;;;10.81;100.00;99162.97;5023375;28;20045;-79
2023/11/14 04:54:44;;;;;;;22.88;4.65;;;;;;;10.83;100.00;99184.69;5025868;28;20524;-84
2023/11/14 04:57:10;;;;;;;19.10;3.95;;;;;;;10.76;100.00;99173.56;5025106;28;20029;-78
2023/11/14 04:59:38;;;;;;;18.13;4.72;;;;;;;10.71;100.00;99180.72;5023748;28;20045;-81
2023/11/14 05:02:04;;;;;;;18.02;4.47;;;;;;;10.59;100.00;99171.50;5023376;28;20135;-78
2023/11/14 05:04:31;;;;;;;20.33;5.10;;;;;;;10.55;100.00;99175.13;5006720;28;20429;-77
2023/11/14 05:06:58;;;;;;;21.17;5.32;;;;;;;10.56;100.00;99176.00;5022780;28;20117;-80
2023/11/14 05:09:24;;;;;;;19.40;3.38;;;;;;;10.59;100.00;99183.75;5023609;28;20034;-80
2023/11/14 05:11:51;;;;;;;17.23;4.72;;;;;;;10.62;100.00;99182.81;5024003;28;20061;-78
2023/11/14 05:14:18;;;;;;;20.30;4.72;;;;;;;10.64;100.00;99183.59;5022232;28;20041;-77
2023/11/14 05:16:45;;;;;;;10.95;3.95;;;;;;;10.67;100.00;99165.19;5023811;28;20489;-77
2023/11/14 05:19:12;;;;;;;14.40;2.95;;;;;;;10.74;100.00;99190.22;5019334;28;20042;-79
2023/11/14 05:21:39;;;;;;;11.13;2.17;;;;;;;10.73;100.00;99172.84;5013230;28;20100;-76
2023/11/14 05:24:07;;;;;;;13.32;2.25;;;;;;;10.65;100.00;99170.47;5016909;28;20316;-77
2023/11/14 05:26:34;;;;;;;9.48;2.35;;;;;;;10.53;100.00;99174.34;5019065;28;20073;-82
2023/11/14 05:29:02;;;;;;;9.30;1.48;;;;;;;10.43;100.00;99173.78;5006324;28;20056;-80
2023/11/14 05:31:29;;;;;;;10.38;2.42;;;;;;;10.41;100.00;99170.34;5022230;28;20140;-82
2023/11/14 05:33:55;;;;;;;9.77;1.70;;;;;;;10.38;100.00;99175.69;5017460;28;20045;-77
2023/11/14 05:36:22;;;;;;;10.52;2.35;;;;;;;10.27;100.00;99154.22;5025273;28;20533;-79
2023/11/14 05:38:48;;;;;;;15.85;2.97;;;;;;;10.24;100.00;99168.22;5024993;28;20069;-78
2023/11/14 05:41:15;;;;;;;8.75;2.97;;;;;;;10.26;100.00;99179.53;5023959;28;20065;-78
2023/11/14 05:43:42;;;;;;;14.38;3.22;;;;;;;10.22;100.00;99174.41;5005218;28;20077;-79
2023/11/14 05:46:09;;;;;;;11.95;3.88;;;;;;;10.24;100.00;99178.69;5005496;28;20054;-79
2023/11/14 05:48:38;;;;;;;25.15;4.60;;;;;;;10.20;100.00;99173.63;5021412;28;20075;-79
2023/11/14 05:51:05;;;;;;;18.35;4.40;;;;;;;10.09;100.00;99174.81;5017916;28;20041;-78
2023/11/14 05:53:32;;;;;;;13.52;3.33;;;;;;;10.09;100.00;99172.19;5018084;28;20046;-80
2023/11/14 05:55:59;;;;;;;11.57;4.00;;;;;;;10.11;100.00;99177.38;5022285;28;20064;-79
2023/11/14 05:58:25;;;;;;;15.80;3.60;;;;;;;10.14;100.00;99182.50;5020050;28;20141;-77
2023/11/14 06:00:52;;;;;;;14.88;3.42;;;;;;;10.18;100.00;99172.81;5016117;28;20077;-79
2023/11/14 06:03:21;;;;;;;16.25;3.95;;;;;;;10.22;100.00;99169.19;5002562;28;20512;-80
2023/11/14 06:05:48;;;;;;;13.85;3.47;;;;;;;10.26;100.00;99160.38;5021647;28;20056;-78
2023/11/14 06:08:14;;;;;;;15.43;3.28;;;;;;;10.28;100.00;99161.16;5020402;28;20037;-77
2023/11/14 06:10:41;;;;;;;18.60;4.20;;;;;;;10.29;100.00;99175.09;5019289;28;20041;-77
2023/11/14 06:13:07;;;;;;;19.20;4.88;;;;;;;10.30;100.00;99172.44;5017672;28;20128;-78
2023/11/14 06:15:34;;;;;;;14.25;3.67;;;;;;;10.30;100.00;99159.38;5019925;28;20037;-82
2023/11/14 06:18:01;;;;;;;18.17;4.03;;;;;;;10.37;100.00;99165.28;5017600;28;20049;-79
2023/11/14 06:20:27;;;;;;;21.02;5.35;;;;;;;10.42;100.00;99166.84;5018731;28;20042;-82
2023/11/14 06:22:54;;;;;;;11.45;3.72;;;;;;;10.52;100.00;99166.53;5022780;28;20107;-77
2023/11/14 06:25:21;;;;;;;27.23;5.57;;;;;;;10.49;100.00;99170.09;5021078;28;20068;-78
2023/11/14 06:27:48;;;;;;;19.67;4.35;;;;;;;10.55;100.00;99176.91;5037262;28;20492;-79
2023/11/14 06:30:15;;;;;;;17.23;3.35;;;;;;;10.58;100.00;99182.88;5021927;28;20044;-77
2023/11/14 06:32:42;;;;;;;17.67;3.95;;;;;;;10.78;100.00;99185.75;5017227;28;20127;-83
2023/11/14 06:35:09;;;;;;;17.85;4.93;;;;;;;10.81;100.00;99189.13;5022416;28;20136;-80
2023/11/14 06:37:37;;;;;;;16.63;2.95;;;;;;;10.78;100.00;99185.75;5021903;28;20061;-78
2023/11/14 06:40:04;;;;;;;17.85;3.85;;;;;;;10.86;100.00;99188.97;5021850;28;20117;-78
2023/11/14 06:42:31;;;;;;;14.60;4.38;;;;;;;10.85;100.00;99203.81;5018520;28;20050;-77
2023/11/14 06:44:57;;;;;;;17.27;3.72;;;;;;;10.87;100.00;99202.03;5018806;28;20041;-80
2023/11/14 06:47:24;;;;;;;21.50;3.67;;;;;;;10.82;100.00;99198.72;5016128;28;20041;-81
2023/11/14 06:49:53;;;;;;;24.50;3.88;;;;;;;10.79;100.00;99204.03;5017953;28;20038;-76
2023/11/14 06:52:20;;;;;;;15.05;3.97;;;;;;;10.81;100.00;99204.84;5013315;28;20046;-77
2023/11/14 06:54:47;;;;;;;9.43;4.15;;;;;;;10.89;100.00;99202.81;5021559;28;20125;-80
2023/11/14 06:57:15;;;;;;;16.60;2.95;;;;;;;10.96;100.00;99216.53;5005729;28;20041;-78
2023/11/14 06:59:41;;;;;;;9.32;2.85;;;;;;;10.96;100.00;99206.06;5038554;28;20037;-78
2023/11/14 07:02:09;;;;;;;16.83;3.63;;;;;;;11.09;100.00;99212.63;5024420;28;20043;-78
2023/11/14 07:04:37;;;;;;;11.70;2.97;;;;;;;11.18;100.00;99210.59;5023360;28;20134;-78
2023/11/14 07:07:05;;;;;;;8.77;2.25;;;;;;;11.16;100.00;99239.47;5014816;28;20120;-78
2023/11/14 07:09:33;;;;;;;16.95;4.80;;;;;;;11.16;100.00;99218.50;5017786;28;20525;-77
2023/11/14 07:11:59;;;;;;;17.85;3.28;;;;;;;11.21;100.00;99218.31;5024148;28;20972;-80
2023/11/14 07:14:29;;;;;;;13.52;3.08;;;;;;;11.22;100.00;99239.25;5024559;28;20045;-76
2023/11/14 07:17:02;;;;;;;14.43;3.08;;;;;;;11.14;100.00;99241.25;5018687;28;20707;-77
2023/11/14 07:19:29;;;;;;;13.15;3.13;;;;;;;11.07;100.00;99239.78;5021273;28;20486;-81
2023/11/14 07:21:59;;;;;;;12.00;2.90;;;;;;;11.16;100.00;99246.44;5000030;28;20047;-80
2023/11/14 07:24:28;;;;;;;14.30;3.40;;;;;;;11.15;100.00;99252.63;5015507;28;20040;-79
2023/11/14 07:26:55;;;;;;;13.13;2.80;;;;;;;11.30;100.00;99257.31;5016973;28;20120;-80
2023/11/14 07:29:21;;;;;;;18.35;3.17;;;;;;;11.27;100.00;99257.41;5003127;28;20136;-79
2023/11/14 07:31:48;;;;;;;12.77;3.35;;;;;;;11.25;100.00;99253.97;5018624;28;20775;-77
2023/11/14 07:34:14;;;;;;;10.95;2.88;;;;;;;11.29;100.00;99244.25;5021064;28;20121;-78
2023/11/14 07:36:41;;;;;;;8.35;3.45;;;;;;;11.31;100.00;99252.94;5024576;28;21473;-79
2023/11/14 07:39:08;;;;;;;15.38;3.38;;;;;;;11.22;100.00;99249.72;5018190;28;20806;-79
2023/11/14 07:41:34;;;;;;;11.95;3.67;;;;;;;11.26;100.00;99263.56;5018431;28;20076;-78
2023/11/14 07:44:01;;;;;;;14.73;3.65;;;;;;;11.23;100.00;99259.28;5018888;28;20068;-80
2023/11/14 07:46:28;;;;;;;18.98;3.92;;;;;;;11.29;100.00;99275.69;5015343;28;20045;-78
2023/11/14 07:48:55;;;;;;;15.57;3.83;;;;;;;11.36;100.00;99271.97;5021127;28;20487;-76
2023/11/14 07:51:21;;;;;;;20.13;4.72;;;;;;;11.46;99.79;99273.38;5016435;28;20659;-78
2023/11/14 07:53:48;;;;;;;21.73;3.92;;;;;;;11.42;99.75;99271.78;5025068;28;20052;-79
2023/11/14 07:56:15;;;;;;;16.40;4.53;;;;;;;11.58;98.25;99288.66;5025724;28;20034;-77
2023/11/14 07:58:42;;;;;;;12.23;2.67;;;;;;;11.69;97.18;99283.06;5018736;28;20084;-80
2023/11/14 08:01:09;;;;;;;16.85;4.10;;;;;;;11.73;97.16;99289.00;5029082;28;20092;-79
2023/11/14 08:03:36;;;;;;;15.95;3.55;;;;;;;11.75;97.12;99288.06;5020302;28;20030;-79
2023/11/14 08:06:03;;;;;;;12.85;3.33;;;;;;;11.68;97.10;99277.84;5018402;28;20198;-79
2023/11/14 08:08:30;;;;;;;17.55;4.25;;;;;;;11.59;97.11;99266.78;5026025;28;20048;-78
2023/11/14 08:10:56;;;;;;;17.08;2.95;;;;;;;11.67;96.43;99279.63;5022304;28;20565;-78
2023/11/14 08:13:23;;;;;;;22.85;4.47;;;;;;;11.72;95.89;99285.56;5023577;28;20488;-80
2023/11/14 08:15:50;;;;;;;13.90;3.70;;;;;;;11.77;95.50;99284.53;5011451;28;20714;-77
2023/11/14 08:18:17;;;;;;;18.70;3.58;;;;;;;11.73;95.34;99278.53;5018369;28;20490;-78
2023/11/14 08:20:43;;;;;;;22.88;4.38;;;;;;;11.76;95.38;99283.69;5005098;28;20073;-76
2023/11/14 08:23:10;;;;;;;19.20;4.63;;;;;;;11.84;94.73;99289.50;5019512;28;20111;-78
2023/11/14 08:25:40;;;;;;;19.15;4.60;;;;;;;11.91;94.04;99291.00;5004715;28;20045;-78
2023/11/14 08:28:09;;;;;;;16.27;3.35;;;;;;;11.96;94.65;99296.09;5033068;28;20033;-80
2023/11/14 08:30:38;;;;;;;18.40;3.67;;;;;;;11.88;95.47;99298.13;5033982;28;20048;-82
2023/11/14 08:33:04;;;;;;;14.70;4.03;;;;;;;11.95;95.58;99311.84;5009478;28;20052;-79
2023/11/14 08:35:31;;;;;;;24.27;5.05;;;;;;;11.97;95.56;99304.81;5007463;28;20096;-79
2023/11/14 08:37:58;;;;;;;10.13;3.92;;;;;;;12.01;95.43;99320.38;5022163;28;20657;-76
2023/11/14 08:40:25;;;;;;;19.70;3.85;;;;;;;12.06;93.65;99307.13;5023281;28;20077;-76
2023/11/14 08:42:53;;;;;;;15.52;3.95;;;;;;;12.17;92.83;99293.59;5025020;28;20041;-81
2023/11/14 08:45:24;;;;;;;14.98;3.58;;;;;;;12.20;92.48;99304.84;5013882;28;20107;-79
2023/11/14 08:47:51;;;;;;;15.25;3.85;;;;;;;12.10;93.68;99300.84;5015555;28;20064;-77
2023/11/14 08:50:18;;;;;;;17.55;4.53;;;;;;;12.03;94.85;99313.31;5026450;28;20059;-79
2023/11/14 08:52:45;;;;;;;16.83;3.63;;;;;;;11.94;95.76;99310.97;5022962;28;20505;-77
2023/11/14 08:55:11;;;;;;;13.13;3.45;;;;;;;11.91;96.62;99311.97;5034905;28;20041;-81
2023/11/14 08:57:38;;;;;;;17.35;4.25;;;;;;;11.95;96.97;99319.72;5011005;28;20049;-77
2023/11/14 09:00:09;;;;;;;16.50;4.80;;;;;;;12.03;96.43;99315.94;5029198;28;20045;-79
2023/11/14 09:02:36;;;;;;;19.00;3.78;;;;;;;12.05;96.43;99335.09;5025564;28;20072;-78
2023/11/14 09:05:03;;;;;;;15.05;4.22;;;;;;;12.00;95.77;99321.28;5038851;28;20041;-80
2023/11/14 09:07:29;;;;;;;18.63;4.60;;;;;;;11.95;96.26;99315.34;5021224;28;20045;-80
2023/11/14 09:09:56;;;;;;;17.00;3.53;;;;;;;11.95;97.29;99317.09;5018803;28;20106;-77
2023/11/14 09:12:23;;;;;;;14.80;2.88;;;;;;;11.93;98.75;99327.66;5017521;28;20078;-78
2023/11/14 09:14:49;;;;;;;17.35;5.05;;;;;;;11.84;99.34;99339.31;5008709;28;20061;-78
2023/11/14 09:17:16;;;;;;;11.70;3.35;;;;;;;11.84;99.34;99347.19;5022006;28;20045;-78
2023/11/14 09:19:46;;;;;;;13.02;3.00;;;;;;;11.82;99.18;99337.66;5027390;28;20102;-77
2023/11/14 09:22:12;;;;;;;20.73;3.38;;;;;;;11.80;98.96;99350.81;5025162;28;20057;-80
2023/11/14 09:24:39;;;;;;;18.40;3.53;;;;;;;11.82;97.58;99335.03;5022926;28;20049;-78
2023/11/14 09:27:06;;;;;;;10.50;3.50;;;;;;;11.88;97.28;99342.69;5022556;28;20049;-80
2023/11/14 09:29:32;;;;;;;17.20;4.88;;;;;;;11.86;96.87;99349.75;5027344;28;20125;-78
2023/11/14 09:31:59;;;;;;;18.23;4.57;;;;;;;11.89;95.80;99342.63;5017443;28;20057;-79
2023/11/14 09:34:27;;;;;;;12.82;3.53;;;;;;;12.11;95.02;99348.91;5017657;28;20566;-78
2023/11/14 09:36:54;;;;;;;16.48;3.63;;;;;;;12.20;93.72;99344.19;5021162;28;20077;-77
2023/11/14 09:39:21;;;;;;;21.08;4.25;;;;;;;12.35;93.12;99347.16;5011399;28;20049;-80
2023/11/14 09:41:48;;;;;;;12.80;3.38;;;;;;;12.32;92.92;99335.00;5022850;28;20041;-79
2023/11/14 09:44:16;;;;;;;17.48;4.38;;;;;;;12.42;91.67;99359.13;5006480;28;20056;-78
2023/11/14 09:46:44;;;;;;;16.65;3.45;;;;;;;12.53;89.55;99341.22;5015965;28;20045;-83
2023/11/14 09:49:14;;;;;;;15.43;3.97;;;;;;;12.70;89.70;99363.34;5021418;28;20056;-78
2023/11/14 09:51:42;;;;;;;19.60;4.38;;;;;;;12.65;90.13;99346.91;5038610;28;20447;-78
2023/11/14 09:54:09;;;;;;;16.88;4.95;;;;;;;12.55;91.54;99360.38;5026346;28;20088;-77
2023/11/14 09:56:35;;;;;;;13.40;3.33;;;;;;;12.46;92.99;99358.09;5039616;28;20065;-77
2023/11/14 09:59:06;;;;;;;13.65;4.13;;;;;;;12.21;96.98;99360.78;5021753;28;20041;-78
2023/11/14 10:01:32;;;;;;;21.02;5.97;;;;;;;12.21;98.50;99356.38;5027835;28;20041;-77
2023/11/14 10:03:59;;;;;;;16.25;3.40;;;;;;;12.21;98.62;99348.50;5008736;28;20051;-79
2023/11/14 10:06:26;;;;;;;17.15;5.65;;;;;;;12.06;100.00;99351.72;5026508;28;20097;-79
2023/11/14 10:08:55;;;;;;;15.30;3.53;;;;;;;12.02;100.00;99344.84;5021448;28;20137;-79
2023/11/14 10:11:22;;;;;;;21.20;4.60;;;;;;;11.97;100.00;99344.13;5007474;28;20471;-79
2023/11/14 10:13:49;;;;;;;18.67;4.63;;;;;;;11.93;100.00;99330.28;5032849;28;20052;-82
2023/11/14 10:16:21;;;;;;;19.27;4.05;;;;;;;12.10;100.00;99341.94;5042382;28;20116;-77
2023/11/14 10:18:50;;;;;;;14.25;3.85;;;;;;;12.14;99.72;99341.78;5021410;28;20049;-78
2023/11/14 10:21:28;;;;;;;23.15;5.30;;;;;;;12.14;99.18;99343.56;5023259;28;20047;-77
2023/11/14 10:23:57;;;;;;;20.35;5.47;;;;;;;12.22;97.12;99315.25;5008962;28;20049;-79
2023/11/14 10:26:27;;;;;;;19.00;4.45;;;;;;;12.34;96.54;99355.94;5004606;28;20385;-78
2023/11/14 10:28:58;;;;;;;15.95;4.13;;;;;;;12.39;95.36;99356.63;5022230;28;20439;-77
2023/11/14 10:31:43;;;;;;;11.05;4.63;;;;;;;12.50;95.02;99358.84;5012505;28;20107;-79
2023/11/14 10:34:28;;;;;;;20.20;4.85;;;;;;;12.56;93.14;99354.19;5020335;28;20049;-77
2023/11/14 10:36:58;;;;;;;30.27;6.38;;;;;;;12.52;93.52;99344.75;5036948;28;20061;-78
2023/11/14 10:39:26;;;;;;;21.65;5.93;;;;;;;12.46;93.55;99326.59;5022431;28;20049;-78
2023/11/14 10:41:54;;;;;;;19.90;5.32;;;;;;;12.43;93.25;99355.59;5018482;28;20153;-79
2023/11/14 10:44:22;;;;;;;18.88;6.15;;;;;;;12.57;92.03;99339.31;5017754;28;20037;-78
2023/11/14 10:46:55;;;;;;;17.77;4.00;;;;;;;12.50;92.60;99343.09;5036366;28;20155;-77
2023/11/14 10:49:24;;;;;;;21.00;4.75;;;;;;;12.47;94.14;99361.59;5018776;28;20430;-76
2023/11/14 10:51:52;;;;;;;15.25;3.53;;;;;;;12.43;94.51;99342.47;5019224;28;20050;-82
2023/11/14 10:54:22;;;;;;;15.90;4.72;;;;;;;12.60;94.79;99354.94;5018809;28;20071;-79
2023/11/14 10:56:48;;;;;;;21.58;7.00;;;;;;;12.39;94.46;99340.88;5017652;28;20073;-78
2023/11/14 10:59:16;;;;;;;17.25;4.80;;;;;;;12.28;95.22;99349.16;5018569;28;20069;-80
2023/11/14 11:01:48;;;;;;;19.58;4.13;;;;;;;12.17;97.17;99343.44;5016953;28;20513;-80
2023/11/14 11:04:20;;;;;;;13.27;4.20;;;;;;;12.26;96.93;99329.13;5017122;28;20045;-81
2023/11/14 11:06:48;;;;;;;16.55;4.30;;;;;;;12.32;95.33;99342.00;5016551;28;20048;-78
2023/11/14 11:09:16;;;;;;;18.33;4.43;;;;;;;12.38;93.23;99326.03;5016230;28;20521;-79
2023/11/14 11:11:49;;;;;;;21.48;4.15;;;;;;;12.67;91.23;99337.19;5017225;28;20650;-79
2023/11/14 11:14:17;;;;;;;11.98;3.47;;;;;;;12.80;89.28;99316.56;5018679;28;20056;-78
2023/11/14 11:16:49;;;;;;;17.88;3.47;;;;;;;12.90;89.09;99331.03;5017958;28;20076;-77
2023/11/14 11:19:23;;;;;;;13.50;3.03;;;;;;;12.90;87.93;99338.91;5002194;28;20598;-78
2023/11/14 11:22:06;;;;;;;;;;;;;;;12.90;87.61;99325.78;5017072;28;20413;-81
2023/11/14 11:24:35;;;;;;;21.92;3.60;;;;;;;13.10;86.81;99329.38;5020747;28;19921;-77